sensor_id;sensor_type;location;lat;lon;timestamp;pressure;altitude;pressure_sealevel;temperature;humidity
3812;BME280;1921;49.368;11.068;2023-12-29T00:00:38;97679.19;;;9.66;85.87
3812;BME280;1921;49.368;11.068;2023-12-29T00:03:05;97686.50;;;9.71;86.63
3812;BME280;1921;49.368;11.068;2023-12-29T00:05:30;97664.63;;;9.49;86.45
3812;BME280;1921;49.368;11.068;2023-12-29T00:07:56;97653.38;;;9.49;86.76
3812;BME280;1921;49.368;11.068;2023-12-29T00:10:22;97638.94;;;9.46;86.59
3812;BME280;1921;49.368;11.068;2023-12-29T00:12:47;97684.47;;;9.81;86.62
3812;BME280;1921;49.368;11.068;2023-12-29T00:15:17;97654.31;;;9.64;86.61
3812;BME280;1921;49.368;11.068;2023-12-29T00:17:44;97648.16;;;9.57;86.63
3812;BME280;1921;49.368;11.068;2023-12-29T00:20:11;97654.47;;;9.62;86.32
3812;BME280;1921;49.368;11.068;2023-12-29T00:22:36;97660.34;;;9.64;86.70
3812;BME280;1921;49.368;11.068;2023-12-29T00:25:02;97652.03;;;9.69;86.45
3812;BME280;1921;49.368;11.068;2023-12-29T00:27:28;97645.84;;;9.62;85.96
3812;BME280;1921;49.368;11.068;2023-12-29T00:29:54;97684.66;;;9.80;86.15
3812;BME280;1921;49.368;11.068;2023-12-29T00:32:20;97688.56;;;9.84;86.27
3812;BME280;1921;49.368;11.068;2023-12-29T00:34:46;97691.63;;;9.87;86.27
3812;BME280;1921;49.368;11.068;2023-12-29T00:37:12;97713.25;;;9.96;86.82
3812;BME280;1921;49.368;11.068;2023-12-29T00:39:37;97575.50;;;9.08;86.60
3812;BME280;1921;49.368;11.068;2023-12-29T00:42:07;97702.81;;;9.96;86.73
3812;BME280;1921;49.368;11.068;2023-12-29T00:44:34;97695.81;;;9.96;86.67
3812;BME280;1921;49.368;11.068;2023-12-29T00:47:00;97641.31;;;9.64;87.30
3812;BME280;1921;49.368;11.068;2023-12-29T00:49:26;97666.97;;;9.75;87.14
3812;BME280;1921;49.368;11.068;2023-12-29T00:51:52;97643.53;;;9.67;86.87
3812;BME280;1921;49.368;11.068;2023-12-29T00:54:18;97700.97;;;10.05;87.02
3812;BME280;1921;49.368;11.068;2023-12-29T00:56:50;97674.00;;;9.97;86.71
3812;BME280;1921;49.368;11.068;2023-12-29T00:59:18;97630.03;;;9.71;86.75
3812;BME280;1921;49.368;11.068;2023-12-29T01:01:44;97643.00;;;9.80;86.47
3812;BME280;1921;49.368;11.068;2023-12-29T01:04:10;97654.19;;;9.88;86.38
3812;BME280;1921;49.368;11.068;2023-12-29T01:06:36;97637.47;;;9.83;86.01
3812;BME280;1921;49.368;11.068;2023-12-29T01:09:01;97607.00;;;9.83;85.45
3812;BME280;1921;49.368;11.068;2023-12-29T01:11:27;97643.03;;;10.03;85.26
3812;BME280;1921;49.368;11.068;2023-12-29T01:13:53;97651.94;;;10.08;85.52
3812;BME280;1921;49.368;11.068;2023-12-29T01:16:19;97630.56;;;9.90;85.22
3812;BME280;1921;49.368;11.068;2023-12-29T01:18:44;97643.50;;;10.06;85.23
3812;BME280;1921;49.368;11.068;2023-12-29T01:21:10;97588.69;;;9.68;84.81
3812;BME280;1921;49.368;11.068;2023-12-29T01:23:36;97570.22;;;9.55;84.58
3812;BME280;1921;49.368;11.068;2023-12-29T01:26:02;97620.97;;;9.90;84.29
3812;BME280;1921;49.368;11.068;2023-12-29T01:28:28;97611.56;;;9.81;84.15
3812;BME280;1921;49.368;11.068;2023-12-29T01:30:53;97666.72;;;10.16;83.98
3812;BME280;1921;49.368;11.068;2023-12-29T01:33:19;97679.06;;;10.22;83.49
3812;BME280;1921;49.368;11.068;2023-12-29T01:35:47;97630.34;;;9.68;84.00
3812;BME280;1921;49.368;11.068;2023-12-29T01:38:12;97654.44;;;9.70;83.50
3812;BME280;1921;49.368;11.068;2023-12-29T01:40:45;97614.69;;;9.46;83.60
3812;BME280;1921;49.368;11.068;2023-12-29T01:43:12;97600.97;;;9.21;84.18
3812;BME280;1921;49.368;11.068;2023-12-29T01:45:37;97633.66;;;9.23;85.17
3812;BME280;1921;49.368;11.068;2023-12-29T01:48:04;97644.91;;;9.15;85.96
3812;BME280;1921;49.368;11.068;2023-12-29T01:50:30;97691.22;;;9.28;86.80
3812;BME280;1921;49.368;11.068;2023-12-29T01:52:56;97679.69;;;9.23;86.90
3812;BME280;1921;49.368;11.068;2023-12-29T01:55:24;97617.16;;;8.92;86.32
3812;BME280;1921;49.368;11.068;2023-12-29T01:57:51;97599.34;;;8.64;86.57
3812;BME280;1921;49.368;11.068;2023-12-29T02:00:17;97621.09;;;8.63;87.37
3812;BME280;1921;49.368;11.068;2023-12-29T02:02:45;97628.41;;;8.68;87.45
3812;BME280;1921;49.368;11.068;2023-12-29T02:05:14;97634.94;;;8.63;87.97
3812;BME280;1921;49.368;11.068;2023-12-29T02:07:43;97661.38;;;8.83;88.96
3812;BME280;1921;49.368;11.068;2023-12-29T02:10:09;97625.00;;;8.67;88.85
3812;BME280;1921;49.368;11.068;2023-12-29T02:12:39;97613.16;;;8.56;88.58
3812;BME280;1921;49.368;11.068;2023-12-29T02:15:06;97663.00;;;8.93;88.61
3812;BME280;1921;49.368;11.068;2023-12-29T02:17:40;97628.06;;;8.79;88.38
3812;BME280;1921;49.368;11.068;2023-12-29T02:20:08;97652.72;;;8.99;88.54
3812;BME280;1921;49.368;11.068;2023-12-29T02:22:34;97656.94;;;9.00;88.10
3812;BME280;1921;49.368;11.068;2023-12-29T02:25:00;97602.72;;;8.81;87.74
3812;BME280;1921;49.368;11.068;2023-12-29T02:27:54;97582.28;;;8.61;87.60
3812;BME280;1921;49.368;11.068;2023-12-29T02:30:41;97661.31;;;9.16;86.94
3812;BME280;1921;49.368;11.068;2023-12-29T02:33:14;97629.50;;;8.98;86.67
3812;BME280;1921;49.368;11.068;2023-12-29T02:35:43;97572.19;;;8.67;87.03
3812;BME280;1921;49.368;11.068;2023-12-29T02:38:11;97605.59;;;8.94;86.23
3812;BME280;1921;49.368;11.068;2023-12-29T02:40:38;97664.03;;;9.31;86.21
3812;BME280;1921;49.368;11.068;2023-12-29T02:43:04;97641.31;;;9.16;86.29
3812;BME280;1921;49.368;11.068;2023-12-29T02:45:30;97609.34;;;8.92;86.71
3812;BME280;1921;49.368;11.068;2023-12-29T02:47:55;97599.13;;;8.90;86.09
3812;BME280;1921;49.368;11.068;2023-12-29T02:50:21;97613.56;;;9.01;85.76
3812;BME280;1921;49.368;11.068;2023-12-29T02:52:47;97590.34;;;8.91;85.73
3812;BME280;1921;49.368;11.068;2023-12-29T02:55:13;97598.63;;;8.86;85.95
3812;BME280;1921;49.368;11.068;2023-12-29T02:57:39;97601.66;;;9.06;85.72
3812;BME280;1921;49.368;11.068;2023-12-29T03:00:06;97595.84;;;8.96;85.38
3812;BME280;1921;49.368;11.068;2023-12-29T03:02:32;97606.72;;;9.00;85.21
3812;BME280;1921;49.368;11.068;2023-12-29T03:04:58;97547.88;;;8.51;85.96
3812;BME280;1921;49.368;11.068;2023-12-29T03:07:24;97604.19;;;8.83;85.82
3812;BME280;1921;49.368;11.068;2023-12-29T03:09:50;97605.66;;;8.78;86.25
3812;BME280;1921;49.368;11.068;2023-12-29T03:12:16;97605.16;;;8.74;87.00
3812;BME280;1921;49.368;11.068;2023-12-29T03:14:41;97594.13;;;8.72;87.33
3812;BME280;1921;49.368;11.068;2023-12-29T03:17:07;97507.16;;;8.03;87.58
3812;BME280;1921;49.368;11.068;2023-12-29T03:19:33;97542.69;;;8.27;87.30
3812;BME280;1921;49.368;11.068;2023-12-29T03:21:59;97558.91;;;8.29;88.17
3812;BME280;1921;49.368;11.068;2023-12-29T03:24:24;97561.50;;;8.29;88.15
3812;BME280;1921;49.368;11.068;2023-12-29T03:26:50;97579.03;;;8.35;88.79
3812;BME280;1921;49.368;11.068;2023-12-29T03:29:16;97539.09;;;8.12;88.91
3812;BME280;1921;49.368;11.068;2023-12-29T03:31:41;97522.06;;;8.01;89.17
3812;BME280;1921;49.368;11.068;2023-12-29T03:34:07;97559.09;;;8.27;88.94
3812;BME280;1921;49.368;11.068;2023-12-29T03:36:33;97550.81;;;8.16;89.29
3812;BME280;1921;49.368;11.068;2023-12-29T03:38:59;97529.88;;;7.93;89.55
3812;BME280;1921;49.368;11.068;2023-12-29T03:41:25;97530.66;;;7.93;89.82
3812;BME280;1921;49.368;11.068;2023-12-29T03:43:50;97559.91;;;8.03;89.95
3812;BME280;1921;49.368;11.068;2023-12-29T03:46:20;97523.69;;;7.86;90.51
3812;BME280;1921;49.368;11.068;2023-12-29T03:48:47;97559.91;;;8.03;90.25
3812;BME280;1921;49.368;11.068;2023-12-29T03:51:13;97555.16;;;8.07;90.29
3812;BME280;1921;49.368;11.068;2023-12-29T03:53:39;97540.75;;;7.96;90.11
3812;BME280;1921;49.368;11.068;2023-12-29T03:56:07;97418.41;;;7.18;89.93
3812;BME280;1921;49.368;11.068;2023-12-29T03:58:34;97558.75;;;7.90;90.72
3812;BME280;1921;49.368;11.068;2023-12-29T04:01:01;97509.25;;;7.59;91.05
3812;BME280;1921;49.368;11.068;2023-12-29T04:03:26;97462.66;;;7.16;91.97
3812;BME280;1921;49.368;11.068;2023-12-29T04:05:52;97547.03;;;7.53;93.70
3812;BME280;1921;49.368;11.068;2023-12-29T04:08:18;97560.81;;;7.62;93.78
3812;BME280;1921;49.368;11.068;2023-12-29T04:10:44;97580.00;;;7.77;93.82
3812;BME280;1921;49.368;11.068;2023-12-29T04:13:09;97551.88;;;7.56;93.71
3812;BME280;1921;49.368;11.068;2023-12-29T04:15:35;97490.22;;;7.25;93.54
3812;BME280;1921;49.368;11.068;2023-12-29T04:18:01;97580.31;;;7.82;93.27
3812;BME280;1921;49.368;11.068;2023-12-29T04:20:26;97530.50;;;7.54;93.35
3812;BME280;1921;49.368;11.068;2023-12-29T04:22:52;97519.31;;;7.62;92.70
3812;BME280;1921;49.368;11.068;2023-12-29T04:25:18;97408.81;;;6.94;93.02
3812;BME280;1921;49.368;11.068;2023-12-29T04:27:44;97505.69;;;7.60;92.42
3812;BME280;1921;49.368;11.068;2023-12-29T04:30:10;97496.13;;;7.52;92.15
3812;BME280;1921;49.368;11.068;2023-12-29T04:32:36;97551.63;;;7.83;92.00
3812;BME280;1921;49.368;11.068;2023-12-29T04:35:01;97551.59;;;7.75;91.47
3812;BME280;1921;49.368;11.068;2023-12-29T04:37:27;97519.94;;;7.55;91.49
3812;BME280;1921;49.368;11.068;2023-12-29T04:39:53;97433.91;;;6.85;93.54
3812;BME280;1921;49.368;11.068;2023-12-29T04:42:19;97481.44;;;7.02;92.79
3812;BME280;1921;49.368;11.068;2023-12-29T04:44:44;97493.13;;;7.14;91.96
3812;BME280;1921;49.368;11.068;2023-12-29T04:47:10;97503.16;;;7.09;92.08
3812;BME280;1921;49.368;11.068;2023-12-29T04:49:36;97520.63;;;7.07;92.01
3812;BME280;1921;49.368;11.068;2023-12-29T04:52:02;97535.53;;;7.05;92.77
3812;BME280;1921;49.368;11.068;2023-12-29T04:54:28;97523.66;;;6.94;92.62
3812;BME280;1921;49.368;11.068;2023-12-29T04:56:54;97514.09;;;6.87;92.71
3812;BME280;1921;49.368;11.068;2023-12-29T04:59:19;97563.41;;;7.03;93.09
3812;BME280;1921;49.368;11.068;2023-12-29T05:01:45;97508.50;;;6.65;93.50
3812;BME280;1921;49.368;11.068;2023-12-29T05:04:11;97537.69;;;6.75;93.57
3812;BME280;1921;49.368;11.068;2023-12-29T05:06:36;97593.09;;;7.09;93.97
3812;BME280;1921;49.368;11.068;2023-12-29T05:09:02;97560.75;;;6.87;94.20
3812;BME280;1921;49.368;11.068;2023-12-29T05:11:28;97569.53;;;6.94;94.88
3812;BME280;1921;49.368;11.068;2023-12-29T05:13:54;97548.13;;;6.92;95.19
3812;BME280;1921;49.368;11.068;2023-12-29T05:16:19;97570.75;;;7.16;95.30
3812;BME280;1921;49.368;11.068;2023-12-29T05:18:45;97578.19;;;7.11;94.96
3812;BME280;1921;49.368;11.068;2023-12-29T05:21:18;97533.03;;;6.87;94.94
3812;BME280;1921;49.368;11.068;2023-12-29T05:23:45;97522.66;;;6.87;95.56
3812;BME280;1921;49.368;11.068;2023-12-29T05:26:11;97522.50;;;6.89;95.63
3812;BME280;1921;49.368;11.068;2023-12-29T05:28:37;97561.66;;;7.12;95.32
3812;BME280;1921;49.368;11.068;2023-12-29T05:31:03;97447.50;;;6.45;95.52
3812;BME280;1921;49.368;11.068;2023-12-29T05:33:30;97546.13;;;7.20;95.77
3812;BME280;1921;49.368;11.068;2023-12-29T05:35:57;97567.72;;;7.28;95.70
3812;BME280;1921;49.368;11.068;2023-12-29T05:38:23;97582.84;;;7.41;95.37
3812;BME280;1921;49.368;11.068;2023-12-29T05:40:48;97511.69;;;7.01;95.32
3812;BME280;1921;49.368;11.068;2023-12-29T05:43:15;97560.25;;;7.25;95.41
3812;BME280;1921;49.368;11.068;2023-12-29T05:45:41;97518.38;;;7.04;95.91
3812;BME280;1921;49.368;11.068;2023-12-29T05:48:07;97530.06;;;7.08;95.92
3812;BME280;1921;49.368;11.068;2023-12-29T05:50:33;97559.44;;;7.25;95.67
3812;BME280;1921;49.368;11.068;2023-12-29T05:52:59;97568.69;;;7.27;95.69
3812;BME280;1921;49.368;11.068;2023-12-29T05:55:25;97545.63;;;7.08;94.97
3812;BME280;1921;49.368;11.068;2023-12-29T05:57:50;97533.41;;;7.00;95.49
3812;BME280;1921;49.368;11.068;2023-12-29T06:00:16;97587.31;;;7.23;94.83
3812;BME280;1921;49.368;11.068;2023-12-29T06:02:43;97550.09;;;6.98;94.88
3812;BME280;1921;49.368;11.068;2023-12-29T06:05:10;97538.75;;;6.91;94.60
3812;BME280;1921;49.368;11.068;2023-12-29T06:07:36;97540.97;;;6.86;94.22
3812;BME280;1921;49.368;11.068;2023-12-29T06:10:02;97537.69;;;6.75;94.27
3812;BME280;1921;49.368;11.068;2023-12-29T06:12:28;97525.50;;;6.68;94.04
3812;BME280;1921;49.368;11.068;2023-12-29T06:14:54;97506.47;;;6.51;94.14
3812;BME280;1921;49.368;11.068;2023-12-29T06:17:20;97529.97;;;6.58;94.41
3812;BME280;1921;49.368;11.068;2023-12-29T06:19:45;97534.69;;;6.62;94.80
3812;BME280;1921;49.368;11.068;2023-12-29T06:22:11;97502.47;;;6.31;94.78
3812;BME280;1921;49.368;11.068;2023-12-29T06:24:37;97538.16;;;6.45;95.19
3812;BME280;1921;49.368;11.068;2023-12-29T06:27:03;97494.88;;;6.29;95.46
3812;BME280;1921;49.368;11.068;2023-12-29T06:29:29;97506.69;;;6.32;95.93
3812;BME280;1921;49.368;11.068;2023-12-29T06:31:55;97570.09;;;6.80;96.26
3812;BME280;1921;49.368;11.068;2023-12-29T06:34:21;97513.75;;;6.47;96.32
3812;BME280;1921;49.368;11.068;2023-12-29T06:36:46;97503.38;;;6.47;95.81
3812;BME280;1921;49.368;11.068;2023-12-29T06:39:12;97521.56;;;6.56;96.32
3812;BME280;1921;49.368;11.068;2023-12-29T06:41:38;97485.97;;;6.32;97.47
3812;BME280;1921;49.368;11.068;2023-12-29T06:44:03;97483.72;;;6.37;97.86
3812;BME280;1921;49.368;11.068;2023-12-29T06:46:29;97504.78;;;6.68;98.73
3812;BME280;1921;49.368;11.068;2023-12-29T06:48:55;97490.56;;;6.72;98.82
3812;BME280;1921;49.368;11.068;2023-12-29T06:51:21;97411.53;;;6.34;98.73
3812;BME280;1921;49.368;11.068;2023-12-29T06:53:48;97461.25;;;6.80;98.51
3812;BME280;1921;49.368;11.068;2023-12-29T06:56:15;97470.47;;;6.82;98.32
3812;BME280;1921;49.368;11.068;2023-12-29T06:58:41;97536.59;;;7.28;99.08
3812;BME280;1921;49.368;11.068;2023-12-29T07:01:07;97538.38;;;7.28;99.84
3812;BME280;1921;49.368;11.068;2023-12-29T07:03:33;97537.75;;;7.34;100.00
3812;BME280;1921;49.368;11.068;2023-12-29T07:06:02;97503.84;;;7.27;100.00
3812;BME280;1921;49.368;11.068;2023-12-29T07:08:28;97545.25;;;7.70;100.00
3812;BME280;1921;49.368;11.068;2023-12-29T07:10:54;97464.63;;;7.39;99.57
3812;BME280;1921;49.368;11.068;2023-12-29T07:13:20;97477.78;;;7.62;99.37
3812;BME280;1921;49.368;11.068;2023-12-29T07:15:47;97521.75;;;8.04;98.89
3812;BME280;1921;49.368;11.068;2023-12-29T07:18:14;97476.78;;;7.87;96.85
3812;BME280;1921;49.368;11.068;2023-12-29T07:20:41;97494.63;;;8.06;97.38
3812;BME280;1921;49.368;11.068;2023-12-29T07:23:07;97521.25;;;8.41;96.42
3812;BME280;1921;49.368;11.068;2023-12-29T07:25:33;97533.06;;;8.60;96.41
3812;BME280;1921;49.368;11.068;2023-12-29T07:27:58;97550.22;;;8.85;95.88
3812;BME280;1921;49.368;11.068;2023-12-29T07:30:24;97528.41;;;8.86;95.59
3812;BME280;1921;49.368;11.068;2023-12-29T07:32:51;97557.88;;;9.26;95.50
3812;BME280;1921;49.368;11.068;2023-12-29T07:35:17;97553.28;;;9.28;94.72
3812;BME280;1921;49.368;11.068;2023-12-29T07:37:48;97514.50;;;9.10;92.91
3812;BME280;1921;49.368;11.068;2023-12-29T07:40:14;97564.25;;;9.47;92.47
3812;BME280;1921;49.368;11.068;2023-12-29T07:42:40;97523.34;;;9.32;92.19
3812;BME280;1921;49.368;11.068;2023-12-29T07:45:06;97536.78;;;9.44;91.21
3812;BME280;1921;49.368;11.068;2023-12-29T07:47:33;97557.69;;;9.59;91.27
3812;BME280;1921;49.368;11.068;2023-12-29T07:49:59;97576.09;;;9.80;90.58
3812;BME280;1921;49.368;11.068;2023-12-29T07:52:24;97514.69;;;9.40;89.56
3812;BME280;1921;49.368;11.068;2023-12-29T07:54:50;97516.31;;;9.41;88.94
3812;BME280;1921;49.368;11.068;2023-12-29T07:57:16;97531.75;;;9.42;88.96
3812;BME280;1921;49.368;11.068;2023-12-29T07:59:42;97544.53;;;9.52;89.10
3812;BME280;1921;49.368;11.068;2023-12-29T08:02:07;97520.63;;;9.49;88.38
3812;BME280;1921;49.368;11.068;2023-12-29T08:04:33;97598.38;;;10.06;88.74
3812;BME280;1921;49.368;11.068;2023-12-29T08:06:59;97531.94;;;9.64;87.70
3812;BME280;1921;49.368;11.068;2023-12-29T08:09:25;97538.78;;;9.65;87.34
3812;BME280;1921;49.368;11.068;2023-12-29T08:11:51;97599.47;;;10.11;86.60
3812;BME280;1921;49.368;11.068;2023-12-29T08:14:17;97568.56;;;9.85;86.15
3812;BME280;1921;49.368;11.068;2023-12-29T08:16:43;97575.88;;;9.90;86.22
3812;BME280;1921;49.368;11.068;2023-12-29T08:19:09;97575.81;;;9.98;86.62
3812;BME280;1921;49.368;11.068;2023-12-29T08:21:36;97568.50;;;9.93;86.71
3812;BME280;1921;49.368;11.068;2023-12-29T08:24:02;97605.19;;;10.38;86.40
3812;BME280;1921;49.368;11.068;2023-12-29T08:26:29;97583.69;;;10.36;86.05
3812;BME280;1921;49.368;11.068;2023-12-29T08:28:54;97580.47;;;10.48;85.16
3812;BME280;1921;49.368;11.068;2023-12-29T08:31:20;97581.22;;;10.57;84.46
3812;BME280;1921;49.368;11.068;2023-12-29T08:33:47;97554.41;;;10.48;84.30
3812;BME280;1921;49.368;11.068;2023-12-29T08:36:13;97590.75;;;10.79;83.12
3812;BME280;1921;49.368;11.068;2023-12-29T08:38:39;97604.97;;;10.77;83.28
3812;BME280;1921;49.368;11.068;2023-12-29T08:41:05;97433.41;;;9.53;82.94
3812;BME280;1921;49.368;11.068;2023-12-29T08:43:31;97562.41;;;10.47;83.57
3812;BME280;1921;49.368;11.068;2023-12-29T08:45:57;97577.63;;;10.73;82.32
3812;BME280;1921;49.368;11.068;2023-12-29T08:48:23;97609.94;;;11.01;82.78
3812;BME280;1921;49.368;11.068;2023-12-29T08:50:49;97609.22;;;11.08;81.82
3812;BME280;1921;49.368;11.068;2023-12-29T08:53:17;97585.72;;;10.93;81.09
3812;BME280;1921;49.368;11.068;2023-12-29T08:55:42;97585.84;;;10.99;82.08
3812;BME280;1921;49.368;11.068;2023-12-29T08:58:08;97604.28;;;11.13;81.38
3812;BME280;1921;49.368;11.068;2023-12-29T09:00:34;97617.94;;;11.15;80.54
3812;BME280;1921;49.368;11.068;2023-12-29T09:02:59;97614.81;;;11.19;80.91
3812;BME280;1921;49.368;11.068;2023-12-29T09:05:25;97633.44;;;11.31;81.27
3812;BME280;1921;49.368;11.068;2023-12-29T09:07:51;97598.06;;;11.14;81.20
3812;BME280;1921;49.368;11.068;2023-12-29T09:10:17;97621.28;;;11.23;81.46
3812;BME280;1921;49.368;11.068;2023-12-29T09:12:43;97622.28;;;11.37;81.23
3812;BME280;1921;49.368;11.068;2023-12-29T09:15:09;97613.72;;;11.28;80.72
3812;BME280;1921;49.368;11.068;2023-12-29T09:17:35;97607.16;;;11.32;80.46
3812;BME280;1921;49.368;11.068;2023-12-29T09:20:02;97619.97;;;11.49;80.36
3812;BME280;1921;49.368;11.068;2023-12-29T09:22:28;97642.63;;;11.78;79.74
3812;BME280;1921;49.368;11.068;2023-12-29T09:24:55;97584.41;;;11.63;79.50
3812;BME280;1921;49.368;11.068;2023-12-29T09:27:21;97647.69;;;12.16;80.25
3812;BME280;1921;49.368;11.068;2023-12-29T09:29:47;97657.84;;;12.47;79.36
3812;BME280;1921;49.368;11.068;2023-12-29T09:32:13;97639.13;;;12.43;78.05
3812;BME280;1921;49.368;11.068;2023-12-29T09:34:39;97610.28;;;12.36;77.46
3812;BME280;1921;49.368;11.068;2023-12-29T09:37:04;97586.56;;;12.17;76.46
3812;BME280;1921;49.368;11.068;2023-12-29T09:39:30;97606.38;;;12.26;76.52
3812;BME280;1921;49.368;11.068;2023-12-29T09:41:58;97637.06;;;12.38;76.55
3812;BME280;1921;49.368;11.068;2023-12-29T09:44:29;97616.56;;;12.21;76.04
3812;BME280;1921;49.368;11.068;2023-12-29T09:47:01;97608.59;;;12.07;76.45
3812;BME280;1921;49.368;11.068;2023-12-29T09:49:38;97563.50;;;11.63;77.68
3812;BME280;1921;49.368;11.068;2023-12-29T09:52:11;97613.81;;;11.86;78.19
3812;BME280;1921;49.368;11.068;2023-12-29T09:54:38;97597.06;;;11.80;77.88
3812;BME280;1921;49.368;11.068;2023-12-29T09:57:05;97620.53;;;11.95;78.55
3812;BME280;1921;49.368;11.068;2023-12-29T09:59:35;97616.81;;;11.83;79.09
3812;BME280;1921;49.368;11.068;2023-12-29T10:02:14;97592.84;;;11.65;79.00
3812;BME280;1921;49.368;11.068;2023-12-29T10:04:41;97487.75;;;10.90;79.22
3812;BME280;1921;49.368;11.068;2023-12-29T10:07:08;97626.69;;;11.73;80.32
3812;BME280;1921;49.368;11.068;2023-12-29T10:09:37;97507.09;;;10.96;80.92
3812;BME280;1921;49.368;11.068;2023-12-29T10:12:04;97551.09;;;11.14;81.94
3812;BME280;1921;49.368;11.068;2023-12-29T10:15:15;97633.38;;;11.60;82.98
3812;BME280;1921;49.368;11.068;2023-12-29T10:20:58;97631.81;;;11.45;84.25
3812;BME280;1921;49.368;11.068;2023-12-29T10:23:54;97551.72;;;10.71;85.69
3812;BME280;1921;49.368;11.068;2023-12-29T10:26:22;97650.28;;;11.14;86.64
3812;BME280;1921;49.368;11.068;2023-12-29T10:28:48;97589.41;;;10.69;87.61
3812;BME280;1921;49.368;11.068;2023-12-29T10:31:15;97607.59;;;10.77;88.75
3812;BME280;1921;49.368;11.068;2023-12-29T10:33:42;97550.25;;;10.39;89.40
3812;BME280;1921;49.368;11.068;2023-12-29T10:36:07;97588.34;;;10.63;90.43
3812;BME280;1921;49.368;11.068;2023-12-29T10:38:34;97589.06;;;10.72;91.76
3812;BME280;1921;49.368;11.068;2023-12-29T10:41:17;97629.63;;;10.89;92.34
3812;BME280;1921;49.368;11.068;2023-12-29T10:43:45;97571.78;;;10.71;93.27
3812;BME280;1921;49.368;11.068;2023-12-29T10:46:17;97585.72;;;10.93;93.73
3812;BME280;1921;49.368;11.068;2023-12-29T10:48:43;97535.81;;;10.81;93.29
3812;BME280;1921;49.368;11.068;2023-12-29T10:51:09;97579.34;;;11.10;93.48
3812;BME280;1921;49.368;11.068;2023-12-29T10:53:36;97584.47;;;11.18;94.00
3812;BME280;1921;49.368;11.068;2023-12-29T10:56:02;97517.56;;;10.81;94.77
3812;BME280;1921;49.368;11.068;2023-12-29T10:58:29;97532.09;;;11.05;92.76
3812;BME280;1921;49.368;11.068;2023-12-29T11:00:59;97575.03;;;11.53;92.11
3812;BME280;1921;49.368;11.068;2023-12-29T11:03:27;97543.09;;;11.51;92.92
3812;BME280;1921;49.368;11.068;2023-12-29T11:05:59;97521.72;;;11.63;93.07
3812;BME280;1921;49.368;11.068;2023-12-29T11:08:28;97549.78;;;11.97;91.75
3812;BME280;1921;49.368;11.068;2023-12-29T11:10:54;97522.59;;;11.91;90.64
3812;BME280;1921;49.368;11.068;2023-12-29T11:13:21;97505.13;;;11.92;89.56
3812;BME280;1921;49.368;11.068;2023-12-29T11:15:48;97529.84;;;12.17;87.81
3812;BME280;1921;49.368;11.068;2023-12-29T11:18:16;97545.41;;;12.25;86.20
3812;BME280;1921;49.368;11.068;2023-12-29T11:20:44;97547.47;;;12.30;87.04
3812;BME280;1921;49.368;11.068;2023-12-29T11:23:11;97567.41;;;12.31;86.72
3812;BME280;1921;49.368;11.068;2023-12-29T11:25:41;97519.47;;;12.02;87.15
3812;BME280;1921;49.368;11.068;2023-12-29T11:28:11;97552.72;;;12.30;88.07
3812;BME280;1921;49.368;11.068;2023-12-29T11:30:39;97520.28;;;12.59;88.26
3812;BME280;1921;49.368;11.068;2023-12-29T11:33:14;97534.19;;;12.94;86.05
3812;BME280;1921;49.368;11.068;2023-12-29T11:36:12;97554.97;;;13.43;84.15
3812;BME280;1921;49.368;11.068;2023-12-29T11:38:42;97546.44;;;14.09;81.25
3812;BME280;1921;49.368;11.068;2023-12-29T11:41:38;97493.97;;;14.42;77.59
3812;BME280;1921;49.368;11.068;2023-12-29T11:44:06;97546.31;;;15.08;72.21
3812;BME280;1921;49.368;11.068;2023-12-29T11:46:43;97486.28;;;14.61;72.39
3812;BME280;1921;49.368;11.068;2023-12-29T11:49:10;97484.28;;;14.56;70.73
3812;BME280;1921;49.368;11.068;2023-12-29T11:51:48;97538.31;;;14.84;71.05
3812;BME280;1921;49.368;11.068;2023-12-29T11:54:25;97472.78;;;14.31;71.07
3812;BME280;1921;49.368;11.068;2023-12-29T11:56:55;97524.59;;;14.81;72.73
3812;BME280;1921;49.368;11.068;2023-12-29T11:59:23;97342.53;;;13.85;71.57
3812;BME280;1921;49.368;11.068;2023-12-29T12:01:54;97489.50;;;14.69;71.65
3812;BME280;1921;49.368;11.068;2023-12-29T12:07:15;97521.00;;;14.43;71.38
3812;BME280;1921;49.368;11.068;2023-12-29T12:09:41;97469.78;;;13.94;71.99
3812;BME280;1921;49.368;11.068;2023-12-29T12:12:07;97527.25;;;14.15;73.43
3812;BME280;1921;49.368;11.068;2023-12-29T12:14:54;97505.84;;;13.65;72.27
3812;BME280;1921;49.368;11.068;2023-12-29T12:17:32;97446.75;;;13.30;73.81
3812;BME280;1921;49.368;11.068;2023-12-29T12:20:07;97445.53;;;12.78;75.22
3812;BME280;1921;49.368;11.068;2023-12-29T12:22:35;97489.13;;;12.99;75.52
3812;BME280;1921;49.368;11.068;2023-12-29T12:25:02;97445.84;;;12.55;76.10
3812;BME280;1921;49.368;11.068;2023-12-29T12:27:30;97451.88;;;12.55;77.21
3812;BME280;1921;49.368;11.068;2023-12-29T12:29:57;97504.38;;;12.95;77.93
3812;BME280;1921;49.368;11.068;2023-12-29T12:32:27;97458.38;;;12.73;77.98
3812;BME280;1921;49.368;11.068;2023-12-29T12:34:54;97458.56;;;12.64;76.42
3812;BME280;1921;49.368;11.068;2023-12-29T12:37:25;97520.34;;;13.07;77.95
3812;BME280;1921;49.368;11.068;2023-12-29T12:39:51;97489.72;;;13.01;77.07
3812;BME280;1921;49.368;11.068;2023-12-29T12:42:19;97449.28;;;13.16;76.56
3812;BME280;1921;49.368;11.068;2023-12-29T12:45:02;97463.31;;;13.63;72.18
3812;BME280;1921;49.368;11.068;2023-12-29T12:48:13;97475.84;;;14.01;69.33
3812;BME280;1921;49.368;11.068;2023-12-29T12:50:44;97446.78;;;14.09;68.41
3812;BME280;1921;49.368;11.068;2023-12-29T12:53:12;97462.88;;;14.33;65.21
3812;BME280;1921;49.368;11.068;2023-12-29T12:55:50;97399.22;;;13.86;64.09
3812;BME280;1921;49.368;11.068;2023-12-29T12:58:18;97462.28;;;14.50;63.49
3812;BME280;1921;49.368;11.068;2023-12-29T13:00:47;97387.84;;;14.25;61.54
3812;BME280;1921;49.368;11.068;2023-12-29T13:03:13;97429.03;;;14.18;61.93
3812;BME280;1921;49.368;11.068;2023-12-29T13:05:40;97421.75;;;14.26;61.49
3812;BME280;1921;49.368;11.068;2023-12-29T13:08:07;97405.00;;;14.14;59.84
3812;BME280;1921;49.368;11.068;2023-12-29T13:10:33;97429.81;;;14.32;60.80
3812;BME280;1921;49.368;11.068;2023-12-29T13:12:59;97480.47;;;14.19;60.98
3812;BME280;1921;49.368;11.068;2023-12-29T13:15:25;97345.41;;;13.57;60.18
3812;BME280;1921;49.368;11.068;2023-12-29T13:17:52;97469.38;;;14.23;60.74
3812;BME280;1921;49.368;11.068;2023-12-29T13:20:18;97452.84;;;14.03;62.06
3812;BME280;1921;49.368;11.068;2023-12-29T13:22:49;97414.94;;;13.72;61.38
3812;BME280;1921;49.368;11.068;2023-12-29T13:25:20;97472.41;;;13.87;60.14